Time;durP1;ratioP1;P1;durP2;ratioP2;P2;SDS_P1;SDS_P2;PMS_P1;PMS_P2;Temp;Humidity;BMP_temperature;BMP_pressure;BME280_temperature;BME280_humidity;BME280_pressure;Samples;Min_cycle;Max_cycle;Signal;HPM_P1;HPM_P2
2022/01/13 00:00:56;;;;;;;0.40;0.30;;;-2.80;99.90;;;;;;5094785;28;20384;-70
2022/01/13 00:03:22;;;;;;;1.00;0.50;;;-2.80;99.90;;;;;;5095984;28;20392;-70
2022/01/13 00:05:47;;;;;;;0.40;0.30;;;-2.70;99.90;;;;;;5113236;28;20372;-70
2022/01/13 00:08:13;;;;;;;0.40;0.40;;;-2.70;99.90;;;;;;5114407;28;20405;-70
2022/01/13 00:10:38;;;;;;;0.40;0.20;;;-2.70;99.90;;;;;;5114220;28;20750;-70
2022/01/13 00:13:09;;;;;;;0.40;0.30;;;-2.80;99.90;;;;;;5112935;28;20412;-70
2022/01/13 00:15:49;;;;;;;0.40;0.20;;;-2.90;99.90;;;;;;5113918;28;20468;-70
2022/01/13 00:18:36;;;;;;;0.40;0.20;;;-2.80;99.90;;;;;;5113727;28;21281;-70
2022/01/13 00:23:44;;;;;;;0.60;0.60;;;-2.90;99.90;;;;;;5114236;28;20380;-70
2022/01/13 00:26:24;;;;;;;0.40;0.20;;;-2.80;99.90;;;;;;5113072;28;20403;-70
2022/01/13 00:28:52;;;;;;;0.40;0.20;;;-2.80;99.90;;;;;;5113999;28;20380;-70
2022/01/13 00:31:27;;;;;;;0.40;0.20;;;-2.80;99.90;;;;;;5112718;28;20388;-70
2022/01/13 00:33:57;;;;;;;0.60;0.60;;;-2.70;99.90;;;;;;5114090;28;20466;-70
2022/01/13 00:36:28;;;;;;;0.40;0.20;;;-2.70;99.90;;;;;;5094651;28;20478;-70
2022/01/13 00:38:55;;;;;;;0.43;0.38;;;-2.70;99.90;;;;;;5095541;28;20399;-70
2022/01/13 00:41:23;;;;;;;0.40;0.30;;;-2.60;99.90;;;;;;5094494;28;20857;-70
2022/01/13 00:43:49;;;;;;;0.40;0.22;;;-2.60;99.90;;;;;;5117767;27;20387;-70
2022/01/13 00:46:21;;;;;;;0.50;0.40;;;-2.70;99.90;;;;;;5134101;27;20408;-70
2022/01/13 00:48:48;;;;;;;0.40;0.20;;;-2.70;99.90;;;;;;5132635;27;20411;-70
2022/01/13 00:51:14;;;;;;;0.40;0.20;;;-2.80;99.90;;;;;;5134684;27;20374;-70
2022/01/13 00:53:40;;;;;;;0.90;0.60;;;-2.80;99.90;;;;;;5133688;27;20398;-71
2022/01/13 00:56:06;;;;;;;0.40;0.20;;;-2.80;99.90;;;;;;5133504;27;20390;-71
2022/01/13 00:58:35;;;;;;;0.40;0.20;;;-2.90;99.90;;;;;;5133690;27;20784;-71
2022/01/13 01:01:03;;;;;;;0.40;0.20;;;-2.80;99.90;;;;;;5133477;27;20453;-71
2022/01/13 01:03:29;;;;;;;0.40;0.30;;;-2.80;99.90;;;;;;5133228;27;20404;-71
2022/01/13 01:05:56;;;;;;;0.40;0.20;;;-2.80;99.90;;;;;;5113714;27;20391;-71
2022/01/13 01:08:22;;;;;;;0.40;0.20;;;-2.70;99.90;;;;;;5133635;27;20383;-71
2022/01/13 01:10:50;;;;;;;0.40;0.20;;;-2.80;99.90;;;;;;5132986;27;20426;-71
2022/01/13 01:13:21;;;;;;;0.40;0.20;;;-2.80;99.90;;;;;;5115088;27;20898;-71
2022/01/13 01:15:51;;;;;;;0.40;0.20;;;-2.90;99.90;;;;;;5133148;27;20367;-71
2022/01/13 01:18:49;;;;;;;0.40;0.20;;;-2.90;99.90;;;;;;5133041;27;20910;-70
2022/01/13 01:29:53;;;;;;;0.40;0.20;;;-3.10;99.90;;;;;;5133301;27;20378;-71
2022/01/13 01:31:55;;;;;;;0.40;0.20;;;-3.20;99.90;;;;;;5124286;27;20397;-71
2022/01/13 01:37:18;;;;;;;0.40;0.20;;;-3.10;99.90;;;;;;5132281;27;20389;-71
2022/01/13 01:39:45;;;;;;;0.40;0.30;;;-3.10;99.90;;;;;;5133292;27;20441;-71
2022/01/13 01:42:15;;;;;;;0.50;0.50;;;-3.10;99.90;;;;;;5132865;27;20867;-71
2022/01/13 01:44:44;;;;;;;0.60;0.60;;;-3.00;99.90;;;;;;5120555;27;20385;-71
2022/01/13 01:47:15;;;;;;;0.40;0.30;;;-3.10;99.90;;;;;;5093958;28;20380;-71
2022/01/13 01:49:53;;;;;;;0.40;0.20;;;-3.10;99.90;;;;;;5111570;28;20372;-71
2022/01/13 01:52:20;;;;;;;0.40;0.20;;;-3.20;99.90;;;;;;5112148;28;20368;-71
2022/01/13 01:54:48;;;;;;;0.40;0.20;;;-3.10;99.90;;;;;;5093232;28;20384;-71
2022/01/13 01:57:16;;;;;;;0.40;0.40;;;-3.10;99.90;;;;;;5111695;28;20853;-70
2022/01/13 01:59:43;;;;;;;0.40;0.20;;;-3.10;99.90;;;;;;5092852;28;20445;-71
2022/01/13 02:02:12;;;;;;;0.40;0.20;;;-3.20;99.90;;;;;;5112050;28;20391;-71
2022/01/13 02:04:37;;;;;;;0.40;0.20;;;-3.30;99.90;;;;;;5111380;28;20418;-71
2022/01/13 02:07:07;;;;;;;0.40;0.30;;;-3.30;99.90;;;;;;5111383;28;20423;-71
2022/01/13 02:09:37;;;;;;;0.40;0.20;;;-3.30;99.90;;;;;;5093729;28;20867;-71
2022/01/13 02:12:10;;;;;;;0.40;0.20;;;-3.30;99.90;;;;;;5110991;28;20372;-71
2022/01/13 02:14:50;;;;;;;0.40;0.30;;;-3.20;99.90;;;;;;5111974;28;20408;-71
2022/01/13 02:17:23;;;;;;;0.40;0.20;;;-3.40;99.90;;;;;;5110838;28;20411;-71
2022/01/13 02:19:52;;;;;;;0.40;0.20;;;-3.40;99.90;;;;;;5111607;28;20387;-71
2022/01/13 02:22:18;;;;;;;0.70;0.70;;;-3.50;99.90;;;;;;5111750;28;20463;-71
2022/01/13 02:24:43;;;;;;;0.40;0.20;;;-3.50;99.90;;;;;;5111245;28;20447;-71
2022/01/13 02:27:10;;;;;;;0.40;0.20;;;-3.50;99.90;;;;;;5110934;28;20810;-71
2022/01/13 02:29:36;;;;;;;0.40;0.20;;;-3.50;99.90;;;;;;5111701;28;20376;-71
2022/01/13 02:32:04;;;;;;;0.40;0.30;;;-3.40;99.90;;;;;;5110813;28;20426;-71
2022/01/13 02:34:30;;;;;;;0.40;0.20;;;-3.30;99.90;;;;;;5111869;28;20386;-71
2022/01/13 02:36:57;;;;;;;0.40;0.20;;;-3.40;99.90;;;;;;5111718;28;20397;-71
2022/01/13 02:39:25;;;;;;;0.40;0.20;;;-3.50;99.90;;;;;;5110604;28;20812;-71
2022/01/13 02:41:50;;;;;;;0.40;0.20;;;-3.50;99.90;;;;;;5111363;28;20380;-71
2022/01/13 02:44:21;;;;;;;1.30;0.60;;;-3.60;99.90;;;;;;5110650;28;20737;-71
2022/01/13 02:49:21;;;;;;;0.40;0.20;;;-3.50;99.90;;;;;;5110839;28;20387;-71
2022/01/13 02:51:49;;;;;;;0.40;0.20;;;-3.60;99.90;;;;;;5111442;28;20380;-70
2022/01/13 02:54:15;;;;;;;0.40;0.20;;;-3.40;99.90;;;;;;5111120;28;20856;-71
2022/01/13 02:56:43;;;;;;;0.40;0.30;;;-3.40;99.90;;;;;;5110858;28;20428;-71
2022/01/13 02:59:09;;;;;;;0.40;0.30;;;-3.50;99.90;;;;;;5110920;28;20377;-71
2022/01/13 03:01:35;;;;;;;0.40;0.40;;;-3.50;99.90;;;;;;5110533;28;20387;-71
2022/01/13 03:04:06;;;;;;;0.40;0.30;;;-3.50;99.90;;;;;;5093237;28;20380;-71
2022/01/13 03:06:35;;;;;;;0.40;0.20;;;-3.50;99.90;;;;;;5110662;28;20868;-71
2022/01/13 03:09:04;;;;;;;0.40;0.20;;;-3.50;99.90;;;;;;5110897;28;20848;-71
2022/01/13 03:11:34;;;;;;;0.40;0.20;;;-3.40;99.90;;;;;;5111200;28;20507;-72
2022/01/13 03:14:00;;;;;;;0.40;0.20;;;-3.40;99.90;;;;;;5111017;28;20541;-71
2022/01/13 03:16:26;;;;;;;0.40;0.38;;;-3.50;99.90;;;;;;5092716;28;20380;-71
2022/01/13 03:18:52;;;;;;;0.80;0.60;;;-3.50;99.90;;;;;;5110004;28;20376;-71
2022/01/13 03:21:18;;;;;;;0.40;0.20;;;-3.50;99.90;;;;;;5092939;28;20387;-71
2022/01/13 03:23:44;;;;;;;0.40;0.30;;;-3.50;99.90;;;;;;5110229;28;20391;-71
2022/01/13 03:26:10;;;;;;;0.40;0.20;;;-3.60;99.90;;;;;;5110673;28;20495;-71
2022/01/13 03:28:50;;;;;;;0.40;0.20;;;-3.60;99.90;;;;;;5113376;28;20486;-71
2022/01/13 03:31:19;;;;;;;0.40;0.20;;;-3.50;99.90;;;;;;5114982;28;20384;-71
2022/01/13 03:33:45;;;;;;;0.40;0.20;;;-3.60;99.90;;;;;;5114743;28;20412;-71
2022/01/13 03:36:11;;;;;;;0.40;0.20;;;-3.70;99.90;;;;;;5113823;28;20864;-71
2022/01/13 03:38:38;;;;;;;0.40;0.20;;;-3.70;99.90;;;;;;5096564;28;20399;-71
2022/01/13 03:41:04;;;;;;;0.40;0.20;;;-3.70;99.90;;;;;;5114064;28;20372;-71
2022/01/13 03:43:30;;;;;;;0.60;0.60;;;-3.70;99.90;;;;;;5098245;27;20757;-71
2022/01/13 03:45:56;;;;;;;0.40;0.20;;;-3.70;99.90;;;;;;5135327;27;20379;-70
2022/01/13 03:48:22;;;;;;;0.40;0.20;;;-3.80;99.90;;;;;;5134422;27;20945;-71
2022/01/13 03:50:48;;;;;;;0.40;0.40;;;-3.70;99.90;;;;;;5135257;27;20370;-70
2022/01/13 03:53:29;;;;;;;0.40;0.20;;;-3.70;99.90;;;;;;5134274;27;20402;-71
2022/01/13 03:56:28;;;;;;;0.40;0.20;;;-3.80;99.90;;;;;;5134933;27;20410;-71
2022/01/13 03:59:41;;;;;;;0.40;0.20;;;-3.80;99.90;;;;;;5134753;27;20370;-71
2022/01/13 04:02:14;;;;;;;0.40;0.20;;;-3.80;99.90;;;;;;5135103;27;20435;-71
2022/01/13 04:04:45;;;;;;;0.40;0.25;;;-3.80;99.90;;;;;;5134600;27;20851;-71
2022/01/13 04:07:14;;;;;;;0.40;0.20;;;-3.80;99.90;;;;;;5134325;27;20515;-71
2022/01/13 04:09:40;;;;;;;0.40;0.20;;;-3.80;99.90;;;;;;5134500;27;20940;-71
2022/01/13 04:12:08;;;;;;;0.40;0.30;;;-3.70;99.90;;;;;;5134862;27;20716;-71
2022/01/13 04:14:57;;;;;;;0.40;0.20;;;-3.70;99.90;;;;;;5115405;27;20959;-72
2022/01/13 04:17:24;;;;;;;0.40;0.20;;;-3.70;99.90;;;;;;5133950;27;20386;-71
2022/01/13 04:19:51;;;;;;;0.40;0.20;;;-3.80;99.90;;;;;;5134631;27;20465;-71
2022/01/13 04:22:18;;;;;;;0.40;0.20;;;-3.70;99.90;;;;;;5116186;27;20399;-71
2022/01/13 04:24:50;;;;;;;0.40;0.20;;;-3.50;99.90;;;;;;5133419;27;20371;-70
2022/01/13 04:27:24;;;;;;;0.40;0.30;;;-3.60;99.90;;;;;;5134559;27;20352;-71
2022/01/13 04:30:11;;;;;;;0.40;0.20;;;-3.60;99.90;;;;;;5133561;27;20378;-71
2022/01/13 04:32:37;;;;;;;0.40;0.40;;;-3.50;99.90;;;;;;5133033;27;20436;-71
2022/01/13 04:35:04;;;;;;;0.40;0.20;;;-3.50;99.90;;;;;;5134101;27;20428;-71
2022/01/13 04:37:29;;;;;;;0.70;0.70;;;-3.40;99.90;;;;;;5134464;27;20417;-71
2022/01/13 04:39:55;;;;;;;0.40;0.20;;;-3.30;99.90;;;;;;5132574;27;20383;-71
2022/01/13 04:42:21;;;;;;;0.40;0.20;;;-3.30;99.90;;;;;;5134139;27;20374;-71
2022/01/13 04:44:46;;;;;;;0.40;0.20;;;-3.40;99.90;;;;;;5120865;27;20423;-70
2022/01/13 04:47:12;;;;;;;0.40;0.20;;;-3.40;99.90;;;;;;5113589;28;20380;-70
2022/01/13 04:49:38;;;;;;;3.30;1.50;;;-3.40;99.90;;;;;;5113120;28;20421;-71
2022/01/13 04:52:03;;;;;;;0.40;0.20;;;-3.40;99.90;;;;;;5112676;28;20403;-70
2022/01/13 04:54:29;;;;;;;0.60;0.50;;;-3.50;99.90;;;;;;5112854;28;20757;-70
2022/01/13 04:59:29;;;;;;;0.40;0.20;;;-3.40;99.90;;;;;;5113130;28;20376;-70
2022/01/13 05:01:55;;;;;;;0.40;0.30;;;-3.50;99.90;;;;;;5112661;28;20752;-71
2022/01/13 05:04:21;;;;;;;0.40;0.20;;;-3.60;99.90;;;;;;5113003;28;20368;-70
2022/01/13 05:06:47;;;;;;;0.40;0.30;;;-3.60;99.90;;;;;;5113214;28;20813;-70
2022/01/13 05:09:12;;;;;;;0.40;0.20;;;-3.60;99.90;;;;;;5112252;28;20388;-70
2022/01/13 05:11:38;;;;;;;0.40;0.20;;;-3.50;99.90;;;;;;5112812;28;20404;-71
2022/01/13 05:14:04;;;;;;;0.40;0.20;;;-3.60;99.90;;;;;;5111697;28;20408;-70
2022/01/13 05:16:52;;;;;;;0.40;0.30;;;-3.60;99.90;;;;;;5112851;28;20372;-71
2022/01/13 05:19:23;;;;;;;0.40;0.30;;;-3.70;99.90;;;;;;5111621;28;20433;-71
2022/01/13 05:24:27;;;;;;;0.75;0.43;;;-3.60;99.90;;;;;;5112272;28;20404;-71
2022/01/13 05:26:53;;;;;;;0.40;0.20;;;-3.60;99.90;;;;;;5112718;28;20558;-71
2022/01/13 05:29:20;;;;;;;0.40;0.20;;;-3.60;99.90;;;;;;5111959;28;20460;-71
2022/01/13 05:31:49;;;;;;;0.40;0.20;;;-3.60;99.90;;;;;;5112508;28;20721;-70
2022/01/13 05:34:15;;;;;;;0.40;0.20;;;-3.50;99.90;;;;;;5111296;28;20768;-71
2022/01/13 05:36:41;;;;;;;0.40;0.20;;;-3.60;99.90;;;;;;5112166;28;20384;-71
2022/01/13 05:39:06;;;;;;;0.40;0.20;;;-3.50;99.90;;;;;;5112616;28;20376;-70
2022/01/13 05:41:33;;;;;;;0.40;0.20;;;-3.70;99.90;;;;;;5111562;28;20376;-71
2022/01/13 05:44:00;;;;;;;0.40;0.30;;;-3.60;99.90;;;;;;5117735;27;20726;-70
2022/01/13 05:46:25;;;;;;;0.50;0.50;;;-3.70;99.90;;;;;;5132199;27;20862;-71
2022/01/13 05:48:54;;;;;;;1.30;0.70;;;-3.70;99.90;;;;;;5132392;27;20456;-71
2022/01/13 05:51:24;;;;;;;0.40;0.20;;;-3.80;99.90;;;;;;5132586;27;20370;-71
2022/01/13 05:53:49;;;;;;;0.40;0.20;;;-3.80;99.90;;;;;;5132184;27;20410;-71
2022/01/13 05:56:15;;;;;;;0.40;0.20;;;-3.80;99.90;;;;;;5132154;27;20504;-71
2022/01/13 05:58:41;;;;;;;0.40;0.20;;;-3.80;99.90;;;;;;5131741;27;20412;-71
2022/01/13 06:01:07;;;;;;;0.40;0.20;;;-3.80;99.90;;;;;;5132511;27;20838;-71
2022/01/13 06:03:33;;;;;;;0.40;0.20;;;-3.80;99.90;;;;;;5113566;27;20385;-71
2022/01/13 06:05:59;;;;;;;0.40;0.20;;;-3.80;99.90;;;;;;5131874;27;20378;-71
2022/01/13 06:08:24;;;;;;;0.40;0.20;;;-3.90;99.90;;;;;;5132431;27;20439;-70
2022/01/13 06:10:50;;;;;;;0.60;0.60;;;-3.90;99.90;;;;;;5131683;27;20796;-70
2022/01/13 06:13:16;;;;;;;1.20;0.70;;;-3.80;99.90;;;;;;5132186;27;20409;-70
2022/01/13 06:15:42;;;;;;;0.40;0.20;;;-3.80;99.90;;;;;;5132155;27;20446;-70
2022/01/13 06:18:16;;;;;;;0.40;0.40;;;-3.80;99.90;;;;;;5131344;27;20419;-70
2022/01/13 06:20:42;;;;;;;0.40;0.28;;;-3.90;99.90;;;;;;5113404;27;20383;-71
2022/01/13 06:23:08;;;;;;;0.50;0.50;;;-3.90;99.90;;;;;;5131176;27;20506;-70
2022/01/13 06:25:35;;;;;;;0.40;0.20;;;-3.90;99.90;;;;;;5131915;27;20788;-71
2022/01/13 06:28:01;;;;;;;0.40;0.25;;;-4.00;99.90;;;;;;5131295;27;20469;-71
2022/01/13 06:30:27;;;;;;;0.40;0.20;;;-3.90;99.90;;;;;;5131932;27;20385;-70
2022/01/13 06:32:52;;;;;;;0.40;0.20;;;-3.90;99.90;;;;;;5132107;27;20950;-70
2022/01/13 06:35:18;;;;;;;0.40;0.20;;;-4.00;99.90;;;;;;5131006;27;20554;-70
2022/01/13 06:37:44;;;;;;;0.40;0.20;;;-4.00;99.90;;;;;;5132158;27;20389;-71
2022/01/13 06:40:12;;;;;;;0.40;0.20;;;-4.10;99.90;;;;;;5130757;27;20394;-71
2022/01/13 06:42:38;;;;;;;0.80;0.80;;;-4.00;99.90;;;;;;5113523;27;20382;-70
2022/01/13 06:45:06;;;;;;;0.40;0.30;;;-4.10;99.90;;;;;;5116792;27;20372;-71
2022/01/13 06:47:32;;;;;;;1.23;0.45;;;-4.10;99.90;;;;;;5111410;28;20385;-71
2022/01/13 06:49:57;;;;;;;0.40;0.20;;;-4.00;99.90;;;;;;5092774;28;20471;-70
2022/01/13 06:52:23;;;;;;;0.40;0.40;;;-4.00;99.90;;;;;;5110409;28;20442;-71
2022/01/13 06:54:51;;;;;;;0.40;0.30;;;-3.90;99.90;;;;;;5111317;28;20463;-70
2022/01/13 06:57:18;;;;;;;0.60;0.60;;;-4.00;99.90;;;;;;5110373;28;20373;-70
2022/01/13 06:59:44;;;;;;;0.40;0.20;;;-4.00;99.90;;;;;;5111141;28;20414;-70
2022/01/13 07:02:10;;;;;;;0.40;0.28;;;-3.90;99.90;;;;;;5111074;28;20906;-70
2022/01/13 07:04:35;;;;;;;0.40;0.20;;;-3.80;99.90;;;;;;5114486;28;20412;-70
2022/01/13 07:07:01;;;;;;;0.40;0.20;;;-3.80;99.90;;;;;;5115702;28;20380;-70
2022/01/13 07:09:27;;;;;;;0.60;0.50;;;-3.90;99.90;;;;;;5114090;28;20384;-70
2022/01/13 07:11:53;;;;;;;0.40;0.20;;;-3.90;99.90;;;;;;5115192;28;20383;-70
2022/01/13 07:14:19;;;;;;;0.40;0.20;;;-3.90;99.90;;;;;;5115061;28;20401;-70
2022/01/13 07:16:45;;;;;;;0.80;0.80;;;-3.80;99.90;;;;;;5114268;28;20429;-70
2022/01/13 07:19:13;;;;;;;0.40;0.20;;;-3.80;99.90;;;;;;5114805;28;20459;-70
2022/01/13 07:21:40;;;;;;;0.40;0.30;;;-3.80;99.90;;;;;;5114146;28;20373;-70
2022/01/13 07:24:06;;;;;;;0.40;0.20;;;-3.90;99.90;;;;;;5115319;28;20394;-70
2022/01/13 07:26:32;;;;;;;0.40;0.20;;;-3.90;99.90;;;;;;5114837;28;20407;-70
2022/01/13 07:28:58;;;;;;;0.40;0.20;;;-3.80;99.90;;;;;;5114063;28;20931;-70
2022/01/13 07:31:24;;;;;;;0.40;0.20;;;-3.60;99.90;;;;;;5114573;28;20770;-70
2022/01/13 07:33:50;;;;;;;0.40;0.20;;;-3.90;99.90;;;;;;5113965;28;20411;-70
2022/01/13 07:36:15;;;;;;;0.40;0.20;;;-3.80;99.90;;;;;;5114259;28;20744;-70
2022/01/13 07:38:41;;;;;;;0.40;0.20;;;-3.70;99.90;;;;;;5114621;28;20388;-70
2022/01/13 07:41:07;;;;;;;0.40;0.40;;;-3.80;99.90;;;;;;5113787;28;20364;-70
2022/01/13 07:43:33;;;;;;;0.40;0.30;;;-3.70;99.90;;;;;;5116445;27;20407;-70
2022/01/13 07:45:59;;;;;;;0.50;0.50;;;-3.80;99.90;;;;;;5134041;27;20453;-71
2022/01/13 07:48:25;;;;;;;0.40;0.20;;;-3.80;99.90;;;;;;5134731;27;20445;-70
2022/01/13 07:50:51;;;;;;;0.40;0.30;;;-3.90;99.90;;;;;;5134532;27;20379;-71
2022/01/13 07:53:18;;;;;;;0.40;0.20;;;-3.90;99.90;;;;;;5134074;27;20398;-71
2022/01/13 07:55:44;;;;;;;0.40;0.30;;;-3.80;99.90;;;;;;5134872;27;20371;-71
2022/01/13 07:58:10;;;;;;;0.50;0.30;;;-3.90;99.90;;;;;;5133997;27;20382;-71
2022/01/13 08:00:36;;;;;;;0.40;0.20;;;-3.90;99.90;;;;;;5134485;27;20474;-71
2022/01/13 08:03:02;;;;;;;0.40;0.20;;;-3.70;99.90;;;;;;5134411;27;20461;-70
2022/01/13 08:05:28;;;;;;;0.40;0.30;;;-3.60;99.90;;;;;;5134349;27;20409;-71
2022/01/13 08:07:54;;;;;;;0.40;0.30;;;-3.50;99.90;;;;;;5134649;27;20424;-71
2022/01/13 08:10:20;;;;;;;0.40;0.20;;;-3.40;99.90;;;;;;5133825;27;20375;-71
2022/01/13 08:12:46;;;;;;;1.20;0.75;;;-3.50;99.90;;;;;;5134413;27;20455;-70
2022/01/13 08:15:14;;;;;;;0.40;0.20;;;-3.40;99.90;;;;;;5132356;27;20445;-71
2022/01/13 08:20:31;;;;;;;0.40;0.40;;;-3.20;99.90;;;;;;5133509;27;20462;-70
2022/01/13 08:22:57;;;;;;;0.40;0.30;;;-3.20;99.90;;;;;;5134111;27;20439;-71
2022/01/13 08:25:24;;;;;;;0.40;0.20;;;-3.00;99.90;;;;;;5133106;27;20390;-71
2022/01/13 08:27:50;;;;;;;0.40;0.20;;;-3.00;99.90;;;;;;5134226;27;20844;-71
2022/01/13 08:30:16;;;;;;;0.40;0.20;;;-3.00;99.90;;;;;;5133955;27;20436;-71
2022/01/13 08:32:42;;;;;;;0.55;0.35;;;-2.90;99.90;;;;;;5133608;27;20398;-71
2022/01/13 08:35:09;;;;;;;0.40;0.20;;;-2.80;99.90;;;;;;5133802;27;20422;-70
2022/01/13 08:37:36;;;;;;;0.40;0.22;;;-2.70;99.90;;;;;;5132935;27;20847;-71
2022/01/13 08:40:07;;;;;;;1.00;0.60;;;-2.80;99.90;;;;;;5134129;27;20776;-71
2022/01/13 08:42:34;;;;;;;0.40;0.20;;;-2.70;99.90;;;;;;5133149;27;20371;-71
2022/01/13 08:45:00;;;;;;;0.40;0.20;;;-2.50;99.90;;;;;;5119603;27;20541;-71
2022/01/13 08:47:26;;;;;;;0.40;0.20;;;-2.40;99.90;;;;;;5113350;28;20413;-71
2022/01/13 08:49:52;;;;;;;0.40;0.40;;;-2.30;99.90;;;;;;5112675;28;20470;-71
2022/01/13 08:52:18;;;;;;;0.40;0.30;;;-2.40;99.90;;;;;;5113229;28;21004;-71
2022/01/13 08:54:46;;;;;;;0.40;0.20;;;-2.30;99.90;;;;;;5112321;28;20782;-71
2022/01/13 08:57:13;;;;;;;0.40;0.20;;;-2.20;99.90;;;;;;5113127;28;20381;-71
2022/01/13 08:59:39;;;;;;;0.40;0.20;;;-2.20;99.90;;;;;;5112212;28;20377;-71
2022/01/13 09:02:05;;;;;;;0.40;0.20;;;-2.10;99.90;;;;;;5112902;28;20391;-71
2022/01/13 09:04:31;;;;;;;0.40;0.20;;;-2.00;99.90;;;;;;5113398;28;20659;-71
2022/01/13 09:06:56;;;;;;;0.80;0.60;;;-2.00;99.90;;;;;;5112104;28;20437;-71
2022/01/13 09:09:22;;;;;;;0.40;0.30;;;-1.90;99.90;;;;;;5112918;28;20387;-71
2022/01/13 09:11:49;;;;;;;0.40;0.20;;;-1.90;99.90;;;;;;5111683;28;20373;-70
2022/01/13 09:14:16;;;;;;;0.40;0.20;;;-1.90;99.90;;;;;;5112937;28;20426;-70
2022/01/13 09:16:45;;;;;;;0.40;0.20;;;-1.90;99.90;;;;;;5112499;28;20430;-70
2022/01/13 09:19:13;;;;;;;0.40;0.25;;;-1.90;99.90;;;;;;5112300;28;20405;-70
2022/01/13 09:21:41;;;;;;;0.40;0.20;;;-1.70;99.90;;;;;;5112176;28;20384;-70
2022/01/13 09:24:10;;;;;;;0.40;0.20;;;-1.60;99.90;;;;;;5111834;28;21316;-70
2022/01/13 09:26:37;;;;;;;0.40;0.30;;;-1.50;99.90;;;;;;5112223;28;20416;-69
2022/01/13 09:29:05;;;;;;;0.40;0.40;;;-1.40;99.90;;;;;;5111650;28;20384;-69
2022/01/13 09:31:32;;;;;;;0.40;0.20;;;-1.50;99.90;;;;;;5111976;28;20391;-69
2022/01/13 09:33:58;;;;;;;0.40;0.20;;;-1.20;99.90;;;;;;5111546;28;20501;-69
2022/01/13 09:36:24;;;;;;;0.40;0.20;;;-1.10;99.90;;;;;;5112028;28;20380;-69
2022/01/13 09:38:50;;;;;;;0.40;0.30;;;-1.00;99.90;;;;;;5112468;28;20899;-69
2022/01/13 09:41:16;;;;;;;0.40;0.20;;;-0.90;99.90;;;;;;5111458;28;20828;-70
2022/01/13 09:43:44;;;;;;;0.70;0.70;;;-0.90;99.90;;;;;;5115423;27;20385;-69
2022/01/13 09:46:10;;;;;;;0.40;0.28;;;-0.70;99.90;;;;;;5131906;27;20386;-69
2022/01/13 09:48:44;;;;;;;0.40;0.30;;;-0.70;99.90;;;;;;5132756;27;20379;-70
2022/01/13 09:51:10;;;;;;;0.40;0.20;;;-0.60;99.90;;;;;;5131724;27;20417;-70
2022/01/13 09:53:36;;;;;;;0.55;0.47;;;-0.50;99.90;;;;;;5113964;27;21067;-70
2022/01/13 09:56:03;;;;;;;0.40;0.20;;;-0.40;99.90;;;;;;5132532;27;20454;-70
2022/01/13 09:58:29;;;;;;;0.70;0.70;;;-0.50;99.90;;;;;;5131624;27;20498;-69
2022/01/13 10:00:56;;;;;;;0.40;0.20;;;-0.50;99.90;;;;;;5132465;27;20466;-69
2022/01/13 10:03:26;;;;;;;0.40;0.30;;;-0.50;99.90;;;;;;5131541;27;20398;-70
2022/01/13 10:05:58;;;;;;;0.40;0.20;;;-0.40;99.90;;;;;;5132299;27;20781;-69
2022/01/13 10:08:47;;;;;;;0.40;0.20;;;-0.10;99.90;;;;;;5131548;27;20881;-70
2022/01/13 10:11:32;;;;;;;1.10;0.90;;;0.00;99.90;;;;;;5131960;27;20378;-70
2022/01/13 10:16:53;;;;;;;0.40;0.20;;;0.20;99.90;;;;;;5127363;27;20397;-72
2022/01/13 10:19:29;;;;;;;0.40;0.20;;;0.20;99.90;;;;;;5132289;27;20886;-70
2022/01/13 10:21:58;;;;;;;0.80;0.80;;;0.30;99.90;;;;;;5131626;27;20522;-70
2022/01/13 10:24:26;;;;;;;0.40;0.30;;;0.20;99.90;;;;;;5131610;27;20451;-71
2022/01/13 10:27:13;;;;;;;4.60;0.60;;;0.10;99.90;;;;;;5132018;27;20408;-70
2022/01/13 10:29:41;;;;;;;0.40;0.27;;;0.30;99.90;;;;;;5131264;27;20850;-70
2022/01/13 10:32:10;;;;;;;0.40;0.30;;;0.50;99.90;;;;;;5131884;27;20421;-70
2022/01/13 10:34:38;;;;;;;0.40;0.30;;;0.40;99.90;;;;;;5131097;27;20467;-70
2022/01/13 10:37:14;;;;;;;0.40;0.40;;;0.50;99.90;;;;;;5131427;27;20379;-70
2022/01/13 10:39:48;;;;;;;0.50;0.47;;;0.60;99.90;;;;;;5131205;27;20431;-70
2022/01/13 10:42:43;;;;;;;0.40;0.30;;;0.60;99.90;;;;;;5131755;27;20383;-70
2022/01/13 10:45:00;;;;;;;0.40;0.25;;;0.50;99.90;;;;;;5117382;27;20855;-72
2022/01/13 10:47:27;;;;;;;0.40;0.30;;;0.40;99.90;;;;;;5111248;28;20384;-70
2022/01/13 10:49:58;;;;;;;0.40;0.22;;;0.50;99.90;;;;;;5110177;28;20906;-70
2022/01/13 10:52:27;;;;;;;0.40;0.30;;;0.60;99.90;;;;;;5111291;28;20901;-70
2022/01/13 10:55:00;;;;;;;0.40;0.20;;;0.70;99.90;;;;;;5110396;28;20376;-70
2022/01/13 10:57:26;;;;;;;0.50;0.50;;;0.50;99.90;;;;;;5111276;28;20435;-70
2022/01/13 10:59:52;;;;;;;0.40;0.20;;;0.70;99.90;;;;;;5110563;28;20379;-70
2022/01/13 11:02:19;;;;;;;0.40;0.20;;;0.90;99.90;;;;;;5111118;28;20381;-70
2022/01/13 11:04:46;;;;;;;0.70;0.70;;;1.00;99.90;;;;;;5110603;28;20720;-71
2022/01/13 11:07:23;;;;;;;0.40;0.30;;;1.00;99.90;;;;;;5111176;28;20384;-71
2022/01/13 11:09:55;;;;;;;0.40;0.20;;;0.90;99.90;;;;;;5110383;28;20380;-72
2022/01/13 11:12:34;;;;;;;0.40;0.30;;;1.10;99.90;;;;;;5110963;28;20375;-71
2022/01/13 11:15:04;;;;;;;0.40;0.20;;;1.00;99.90;;;;;;5110174;28;20821;-71
2022/01/13 11:17:31;;;;;;;0.70;0.70;;;1.20;99.90;;;;;;5110685;28;20386;-71
2022/01/13 11:19:57;;;;;;;0.57;0.57;;;1.50;99.90;;;;;;5110195;28;20840;-71
2022/01/13 11:22:23;;;;;;;0.40;0.30;;;1.80;99.90;;;;;;5111008;28;20713;-71
2022/01/13 11:24:49;;;;;;;0.40;0.22;;;1.80;99.90;;;;;;5092352;28;20376;-71
2022/01/13 11:27:17;;;;;;;0.40;0.20;;;1.90;99.90;;;;;;5109794;28;20855;-72
2022/01/13 11:29:45;;;;;;;0.40;0.20;;;2.70;99.90;;;;;;5110809;28;20408;-72
2022/01/13 11:32:14;;;;;;;0.40;0.40;;;3.10;99.90;;;;;;5109996;28;20373;-72
2022/01/13 11:34:41;;;;;;;0.40;0.30;;;3.20;99.80;;;;;;5110577;28;20400;-72
2022/01/13 11:37:07;;;;;;;0.40;0.30;;;3.10;98.40;;;;;;5110275;28;20839;-72
2022/01/13 11:39:42;;;;;;;0.40;0.30;;;3.50;97.90;;;;;;5110745;28;20381;-72
2022/01/13 11:42:10;;;;;;;0.40;0.20;;;3.90;96.60;;;;;;5109992;28;20859;-72
2022/01/13 11:44:37;;;;;;;0.40;0.28;;;3.60;96.50;;;;;;5121357;28;20415;-72
2022/01/13 11:47:15;;;;;;;0.40;0.30;;;3.70;95.30;;;;;;5130549;28;20711;-72
2022/01/13 11:49:54;;;;;;;0.40;0.30;;;3.80;96.50;;;;;;5133398;27;20371;-72
2022/01/13 11:52:39;;;;;;;0.40;0.20;;;3.90;96.30;;;;;;5115671;27;20367;-72
2022/01/13 11:55:41;;;;;;;0.40;0.40;;;4.20;96.10;;;;;;5134833;27;20391;-72
2022/01/13 11:58:11;;;;;;;0.40;0.30;;;4.10;97.00;;;;;;5134362;27;20375;-72
2022/01/13 12:00:37;;;;;;;0.40;0.40;;;4.60;95.50;;;;;;5135029;27;20379;-72
2022/01/13 12:03:34;;;;;;;0.40;0.30;;;4.50;95.90;;;;;;5134957;27;20727;-72
2022/01/13 12:06:01;;;;;;;0.40;0.30;;;4.40;96.70;;;;;;5134918;27;20386;-72
2022/01/13 12:08:54;;;;;;;0.40;0.30;;;4.80;96.60;;;;;;5133762;27;20383;-72
2022/01/13 12:11:45;;;;;;;0.40;0.20;;;4.60;96.90;;;;;;5133866;27;20422;-72
2022/01/13 12:14:23;;;;;;;0.40;0.20;;;4.70;96.00;;;;;;5134442;27;20499;-72
2022/01/13 12:17:08;;;;;;;0.50;0.50;;;4.70;96.00;;;;;;5134552;27;20379;-72
2022/01/13 12:19:45;;;;;;;0.80;0.60;;;5.50;95.90;;;;;;5133757;27;20729;-72
2022/01/13 12:22:25;;;;;;;0.40;0.40;;;5.80;94.40;;;;;;5134309;27;20378;-72
2022/01/13 12:24:59;;;;;;;0.40;0.20;;;4.40;96.60;;;;;;5134021;27;20739;-72
2022/01/13 12:27:47;;;;;;;0.40;0.30;;;5.00;97.00;;;;;;5133672;27;20362;-73
2022/01/13 12:30:23;;;;;;;0.50;0.50;;;4.90;97.10;;;;;;5133937;27;20750;-72
2022/01/13 12:33:00;;;;;;;0.40;0.30;;;4.80;97.70;;;;;;5133803;27;20882;-72
2022/01/13 12:35:30;;;;;;;0.40;0.30;;;4.50;96.30;;;;;;5132811;27;20859;-73
2022/01/13 12:38:03;;;;;;;0.60;0.60;;;4.50;97.10;;;;;;5134046;27;20423;-72
2022/01/13 12:40:39;;;;;;;0.40;0.20;;;4.10;97.50;;;;;;5132851;27;20432;-72
2022/01/13 12:43:21;;;;;;;0.60;0.60;;;3.30;99.90;;;;;;5133948;27;20704;-72
2022/01/13 12:45:47;;;;;;;0.40;0.20;;;2.80;99.90;;;;;;5112040;28;20379;-72
2022/01/13 12:48:13;;;;;;;0.40;0.40;;;2.80;99.90;;;;;;5095049;28;20384;-72
2022/01/13 12:50:45;;;;;;;0.60;0.50;;;2.40;99.90;;;;;;5112478;28;20380;-72
2022/01/13 12:53:26;;;;;;;1.90;0.70;;;2.20;99.90;;;;;;5113241;28;20412;-73
2022/01/13 12:55:57;;;;;;;0.50;0.50;;;2.00;99.90;;;;;;5112518;28;20379;-73
2022/01/13 12:58:25;;;;;;;0.60;0.60;;;2.10;99.90;;;;;;5113220;28;20392;-74
2022/01/13 13:00:54;;;;;;;0.40;0.20;;;2.10;99.90;;;;;;5111470;28;21281;-73
2022/01/13 13:03:20;;;;;;;0.70;0.70;;;2.10;99.90;;;;;;5113029;28;20459;-73
2022/01/13 13:05:47;;;;;;;2.60;0.90;;;2.00;99.90;;;;;;5111765;28;20429;-73
2022/01/13 13:08:19;;;;;;;0.40;0.20;;;2.00;99.90;;;;;;5113128;28;20385;-73
2022/01/13 13:10:51;;;;;;;1.20;0.60;;;2.10;99.90;;;;;;5112046;28;20381;-74
2022/01/13 13:13:19;;;;;;;1.30;1.20;;;2.10;99.90;;;;;;5112963;28;20400;-74
2022/01/13 13:15:59;;;;;;;0.70;0.70;;;2.20;99.90;;;;;;5111937;28;20391;-74
2022/01/13 13:18:28;;;;;;;0.90;0.90;;;2.10;99.90;;;;;;5112954;28;20732;-73
2022/01/13 13:20:55;;;;;;;0.40;0.20;;;2.10;99.90;;;;;;5111880;28;20380;-74
2022/01/13 13:23:33;;;;;;;0.80;0.80;;;2.20;99.90;;;;;;5112721;28;20439;-74
2022/01/13 13:26:08;;;;;;;0.40;0.40;;;1.90;99.90;;;;;;5111464;28;20419;-73
2022/01/13 13:28:40;;;;;;;0.60;0.60;;;1.70;99.90;;;;;;5112281;28;20857;-73